Time;durP1;ratioP1;P1;durP2;ratioP2;P2;SDS_P1;SDS_P2;PMS_P1;PMS_P2;Temp;Humidity;BMP_temperature;BMP_pressure;BME280_temperature;BME280_humidity;BME280_pressure;Samples;Min_cycle;Max_cycle;Signal;HPM_P1;HPM_P2
2022/08/02 04:23:10;;;;;;;10.60;4.80;;;;;;;18.32;89.07;100445.63;5089204;28;20328;-66
2022/08/02 04:25:37;;;;;;;7.03;3.58;;;;;;;18.30;89.40;100446.88;5088978;28;20040;-66
2022/08/02 04:28:04;;;;;;;4.18;2.92;;;;;;;18.27;89.96;100441.94;5088975;28;20131;-66
2022/08/02 04:30:30;;;;;;;8.07;2.95;;;;;;;18.22;90.78;100442.56;5088744;28;20044;-66
2022/08/02 04:32:57;;;;;;;7.50;3.85;;;;;;;18.26;90.32;100438.41;5088949;28;20032;-66
2022/08/02 04:35:23;;;;;;;5.22;2.30;;;;;;;18.26;89.75;100442.97;5089022;28;20043;-65
2022/08/02 04:37:50;;;;;;;5.93;2.40;;;;;;;18.24;89.84;100435.09;5088783;28;20036;-66
2022/08/02 04:40:16;;;;;;;3.45;2.63;;;;;;;18.29;88.90;100437.13;5088233;28;20072;-66
2022/08/02 04:42:41;;;;;;;4.32;2.45;;;;;;;18.34;88.51;100442.69;5088582;28;20067;-66
2022/08/02 04:45:09;;;;;;;6.00;2.53;;;;;;;18.35;88.50;100439.78;5088687;28;20090;-66
2022/08/02 04:47:35;;;;;;;4.18;2.90;;;;;;;18.44;88.22;100451.09;5088626;28;20127;-59
2022/08/02 04:50:00;;;;;;;5.40;3.00;;;;;;;18.48;87.55;100448.81;5088624;28;20115;-46
2022/08/02 04:52:26;;;;;;;4.22;2.47;;;;;;;18.57;87.13;100448.31;5088373;28;20045;-48
2022/08/02 04:54:52;;;;;;;5.32;2.92;;;;;;;18.66;86.76;100440.78;5088375;28;20040;-45
2022/08/02 05:00:07;;;;;;;5.90;3.03;;;;;;;18.82;86.51;100450.19;5088060;28;20040;-47
2022/08/02 05:02:33;;;;;;;5.53;2.55;;;;;;;18.87;86.20;100445.78;5088535;28;20067;-46
2022/08/02 05:04:58;;;;;;;5.75;3.13;;;;;;;18.90;84.94;100444.50;5088382;28;20540;-44
2022/08/02 05:07:23;;;;;;;6.70;2.80;;;;;;;18.93;85.19;100452.16;5088059;28;20044;-44
2022/08/02 05:09:49;;;;;;;7.03;3.10;;;;;;;19.04;84.45;100447.88;5087896;28;20035;-48
2022/08/02 05:12:14;;;;;;;5.00;2.65;;;;;;;19.09;84.11;100456.16;5088117;28;20404;-45
2022/08/02 05:14:40;;;;;;;4.30;2.50;;;;;;;19.14;83.33;100448.22;5088202;28;20036;-44
2022/08/02 05:17:05;;;;;;;4.70;2.40;;;;;;;19.21;83.35;100459.75;5087902;28;20100;-45
2022/08/02 05:19:31;;;;;;;6.22;3.20;;;;;;;19.23;83.21;100454.94;5087780;28;20459;-44
2022/08/02 05:21:56;;;;;;;5.78;2.80;;;;;;;19.25;82.71;100451.00;5087769;28;20082;-46
2022/08/02 05:24:22;;;;;;;5.32;3.28;;;;;;;19.33;82.95;100447.16;5087911;28;20090;-45
2022/08/02 05:26:47;;;;;;;7.90;3.05;;;;;;;19.36;82.26;100448.56;5087845;28;20432;-46
2022/08/02 05:29:12;;;;;;;4.13;2.40;;;;;;;19.41;83.09;100437.91;5087497;28;20040;-45
2022/08/02 05:31:38;;;;;;;5.55;2.80;;;;;;;19.41;82.77;100448.72;5087886;28;20115;-45
2022/08/02 05:34:03;;;;;;;9.65;3.08;;;;;;;19.44;81.93;100443.72;5073680;28;20051;-45
2022/08/02 05:36:29;;;;;;;5.60;2.55;;;;;;;19.50;81.91;100453.63;5074060;28;20032;-45
2022/08/02 05:38:54;;;;;;;6.63;3.25;;;;;;;19.59;82.01;100451.44;5073900;28;20041;-44
2022/08/02 05:41:19;;;;;;;5.28;3.00;;;;;;;19.63;81.48;100454.53;5072706;28;20037;-44
2022/08/02 05:43:46;;;;;;;8.10;3.58;;;;;;;19.69;81.90;100462.56;5074003;28;20081;-44
2022/08/02 05:46:11;;;;;;;4.82;2.60;;;;;;;19.74;81.69;100457.25;5074011;28;20485;-44
2022/08/02 05:48:37;;;;;;;7.55;3.72;;;;;;;19.76;81.96;100454.34;5073975;28;20042;-45
2022/08/02 05:51:05;;;;;;;5.95;2.88;;;;;;;19.79;83.03;100456.59;5073497;28;20054;-47
2022/08/02 05:53:45;;;;;;;4.43;2.90;;;;;;;19.86;83.24;100461.91;5072640;28;20048;-47
2022/08/02 05:56:22;;;;;;;7.47;3.03;;;;;;;19.92;83.39;100467.22;5073869;28;20036;-48
2022/08/02 05:59:04;;;;;;;5.57;3.15;;;;;;;19.97;84.55;100466.53;5073789;28;20043;-46
2022/08/02 06:01:36;;;;;;;5.32;2.55;;;;;;;20.01;83.40;100475.81;5073582;28;20378;-45
2022/08/02 06:04:07;;;;;;;4.80;2.70;;;;;;;20.07;82.88;100474.91;5072394;28;20044;-45
2022/08/02 06:06:33;;;;;;;7.00;3.97;;;;;;;20.04;81.84;100459.97;5073694;28;20120;-47
2022/08/02 06:09:02;;;;;;;4.67;3.30;;;;;;;20.15;81.59;100466.50;5073525;28;20058;-48
2022/08/02 06:11:37;;;;;;;6.45;3.60;;;;;;;20.18;81.63;100471.41;5073471;28;20037;-44
2022/08/02 06:14:05;;;;;;;7.82;3.40;;;;;;;20.21;81.87;100465.56;5073597;28;20036;-50
2022/08/02 06:16:30;;;;;;;;;;;;;;;20.26;81.68;100468.38;5073802;28;20048;-45
2022/08/02 06:18:57;;;;;;;7.88;4.50;;;;;;;20.28;81.65;100460.88;5073432;28;19912;-45
2022/08/02 06:21:25;;;;;;;7.63;5.25;;;;;;;20.25;78.25;100457.78;5073047;28;20090;-46
2022/08/02 06:23:52;;;;;;;7.85;5.30;;;;;;;20.29;78.10;100457.13;5073155;28;20036;-45
2022/08/02 06:26:17;;;;;;;8.70;5.18;;;;;;;20.32;78.01;100466.63;5073127;28;20040;-47
2022/08/02 06:28:44;;;;;;;8.70;4.35;;;;;;;20.38;79.20;100465.72;5072999;28;20036;-46
2022/08/02 06:31:11;;;;;;;7.78;4.28;;;;;;;20.44;78.73;100466.66;5073207;28;20393;-46
2022/08/02 06:33:37;;;;;;;7.20;4.80;;;;;;;20.49;79.74;100472.25;5073312;28;20052;-47
2022/08/02 06:36:09;;;;;;;7.70;4.95;;;;;;;20.54;78.88;100467.78;5073002;28;20043;-49
2022/08/02 06:38:40;;;;;;;6.80;4.38;;;;;;;20.62;79.02;100474.72;5073179;28;20392;-48
2022/08/02 06:41:13;;;;;;;9.98;4.75;;;;;;;20.66;79.10;100475.88;5072489;28;20121;-46
2022/08/02 06:43:45;;;;;;;6.85;4.63;;;;;;;20.70;78.15;100470.84;5072483;28;20040;-48
2022/08/02 06:46:11;;;;;;;8.48;5.20;;;;;;;20.78;78.17;100476.72;5072138;28;20032;-48
2022/08/02 06:48:37;;;;;;;9.00;5.50;;;;;;;20.88;77.61;100470.75;5072796;28;20098;-46
2022/08/02 06:51:03;;;;;;;8.95;5.00;;;;;;;20.96;77.75;100466.84;5072388;28;20032;-50
2022/08/02 06:53:29;;;;;;;10.75;4.72;;;;;;;20.97;76.52;100472.03;5072580;28;20124;-49
2022/08/02 06:55:54;;;;;;;8.25;4.90;;;;;;;21.04;77.23;100474.59;5072504;28;20033;-47
2022/08/02 06:58:20;;;;;;;8.00;4.90;;;;;;;21.11;76.94;100476.13;5072564;28;20052;-49
2022/08/02 07:00:46;;;;;;;8.27;5.22;;;;;;;21.11;74.94;100467.19;5072274;28;20044;-46
2022/08/02 07:03:11;;;;;;;7.15;5.65;;;;;;;21.12;74.94;100468.81;5072342;28;20059;-53
2022/08/02 07:05:37;;;;;;;7.70;5.03;;;;;;;21.19;75.13;100476.81;5072419;28;20058;-48
2022/08/02 07:08:03;;;;;;;9.45;5.00;;;;;;;21.19;75.50;100474.97;5072444;28;20028;-52
2022/08/02 07:10:28;;;;;;;8.48;6.28;;;;;;;21.22;74.48;100474.47;5071991;28;20040;-47
2022/08/02 07:12:54;;;;;;;7.07;5.07;;;;;;;21.28;74.75;100467.28;5072414;28;20374;-47
2022/08/02 07:15:19;;;;;;;7.88;5.10;;;;;;;21.33;73.90;100484.50;5072187;28;20117;-51
2022/08/02 07:17:45;;;;;;;8.25;4.65;;;;;;;21.45;74.37;100472.81;5072312;28;20035;-46
2022/08/02 07:20:12;;;;;;;6.57;4.53;;;;;;;21.51;74.24;100474.56;5071873;28;20455;-46
2022/08/02 07:22:38;;;;;;;10.40;5.68;;;;;;;21.58;73.68;100469.81;5071915;28;20052;-48
2022/08/02 07:25:04;;;;;;;7.95;5.28;;;;;;;21.67;73.23;100471.94;5072113;28;20052;-48
2022/08/02 07:27:29;;;;;;;8.63;4.80;;;;;;;21.78;74.10;100478.38;5072002;28;20107;-46
2022/08/02 07:29:55;;;;;;;8.35;5.13;;;;;;;21.91;72.93;100485.41;5071658;28;20550;-46
2022/08/02 07:32:24;;;;;;;10.20;5.57;;;;;;;21.98;71.91;100477.97;5072009;28;20032;-48
2022/08/02 07:34:51;;;;;;;8.63;5.63;;;;;;;22.18;71.25;100469.41;5071859;28;20029;-46
2022/08/02 07:37:17;;;;;;;8.15;4.72;;;;;;;22.33;69.96;100472.38;5071671;28;20048;-49
2022/08/02 07:39:42;;;;;;;9.43;4.82;;;;;;;22.41;69.90;100473.84;5071469;28;20037;-46
2022/08/02 07:42:08;;;;;;;10.20;4.97;;;;;;;22.46;70.58;100477.47;5071807;28;20044;-47
2022/08/02 07:44:33;;;;;;;8.88;5.28;;;;;;;22.50;69.59;100477.00;5071813;28;20446;-46
2022/08/02 07:47:03;;;;;;;10.85;5.47;;;;;;;22.57;68.25;100478.47;5071918;28;20047;-47
2022/08/02 07:49:30;;;;;;;8.93;5.13;;;;;;;22.77;68.18;100475.25;5071546;28;20037;-46
2022/08/02 07:51:56;;;;;;;9.13;4.95;;;;;;;22.82;68.87;100469.91;5071669;28;20024;-46
2022/08/02 07:54:22;;;;;;;7.88;4.38;;;;;;;22.89;69.41;100477.91;5071642;28;20041;-47
2022/08/02 07:56:48;;;;;;;7.00;4.47;;;;;;;23.01;68.01;100476.72;5071405;28;20047;-47
2022/08/02 07:59:13;;;;;;;7.60;4.53;;;;;;;23.19;67.08;100477.50;5071387;28;20376;-49
2022/08/02 08:01:39;;;;;;;9.40;5.15;;;;;;;23.32;66.06;100463.56;5071735;28;20040;-46
2022/08/02 08:04:05;;;;;;;11.50;4.93;;;;;;;23.36;65.19;100456.56;5071758;28;20119;-48
2022/08/02 08:06:30;;;;;;;7.00;3.97;;;;;;;23.53;65.41;100465.44;5070359;28;20063;-46
2022/08/02 08:08:56;;;;;;;6.80;4.82;;;;;;;23.52;63.48;100465.72;5071537;28;20040;-46
2022/08/02 08:11:23;;;;;;;8.75;4.32;;;;;;;23.59;63.77;100471.78;5071476;28;20130;-48
2022/08/02 08:13:48;;;;;;;6.32;3.90;;;;;;;23.62;63.50;100468.59;5070460;28;20032;-47
2022/08/02 08:16:14;;;;;;;6.70;4.43;;;;;;;23.61;63.01;100460.66;5071443;28;20048;-48
2022/08/02 08:18:39;;;;;;;6.50;3.75;;;;;;;23.62;62.32;100457.72;5071511;28;20032;-50
2022/08/02 08:21:05;;;;;;;5.18;4.07;;;;;;;23.62;62.35;100456.91;5071109;28;20133;-49
2022/08/02 08:23:31;;;;;;;7.63;4.20;;;;;;;23.82;62.67;100462.56;5071558;28;20539;-51
2022/08/02 08:25:56;;;;;;;6.63;4.03;;;;;;;23.73;61.08;100461.34;5071405;28;20033;-51
2022/08/02 08:28:22;;;;;;;4.57;3.72;;;;;;;23.88;61.43;100458.81;5071461;28;20133;-46
2022/08/02 08:30:48;;;;;;;6.40;3.90;;;;;;;24.00;61.08;100456.78;5071201;28;20040;-45
2022/08/02 08:33:13;;;;;;;7.72;3.75;;;;;;;23.99;59.31;100448.84;5071449;28;20037;-46
2022/08/02 08:35:39;;;;;;;5.88;4.07;;;;;;;24.14;60.49;100456.38;5071294;28;20037;-47
2022/08/02 08:38:05;;;;;;;6.22;3.38;;;;;;;24.17;59.46;100453.94;5071234;28;20063;-50
2022/08/02 08:40:31;;;;;;;4.85;3.30;;;;;;;24.33;58.19;100468.50;5070824;28;20071;-46
2022/08/02 08:42:56;;;;;;;4.40;3.08;;;;;;;24.45;58.59;100454.75;5071380;28;20060;-63
2022/08/02 08:45:22;;;;;;;4.60;3.10;;;;;;;24.59;58.67;100458.69;5069850;28;20497;-66
2022/08/02 08:47:53;;;;;;;7.88;3.85;;;;;;;24.77;57.74;100452.81;5071167;28;20040;-63
2022/08/02 08:50:23;;;;;;;9.30;3.85;;;;;;;24.83;57.79;100456.38;5071095;28;20420;-63
2022/08/02 08:53:06;;;;;;;7.78;3.47;;;;;;;24.91;57.48;100450.47;5071503;28;20443;-62
2022/08/02 08:55:33;;;;;;;6.63;3.30;;;;;;;24.87;56.27;100442.00;5071193;28;20691;-61
2022/08/02 08:58:01;;;;;;;3.95;3.30;;;;;;;24.98;56.00;100448.34;5071049;28;20033;-63
2022/08/02 09:00:29;;;;;;;4.68;3.22;;;;;;;25.22;55.97;100448.75;5070815;28;20049;-64
2022/08/02 09:02:55;;;;;;;3.80;3.13;;;;;;;25.30;55.26;100450.13;5070875;28;20070;-63
2022/08/02 09:05:21;;;;;;;3.05;2.55;;;;;;;25.19;54.96;100432.94;5070701;28;20044;-64
2022/08/02 09:07:48;;;;;;;2.97;2.65;;;;;;;25.44;54.94;100435.78;5071774;28;20448;-65
2022/08/02 09:10:32;;;;;;;;;;;;;;;25.68;54.43;100447.00;5074969;28;20115;-63
2022/08/02 09:13:19;;;;;;;4.47;2.92;;;;;;;25.83;53.30;100438.09;5075159;28;19918;-62
2022/08/02 09:15:54;;;;;;;3.75;2.60;;;;;;;25.94;53.69;100438.91;5074649;28;20491;-65
2022/08/02 09:18:20;;;;;;;4.63;3.10;;;;;;;26.17;52.80;100421.22;5074606;28;20032;-64
2022/08/02 09:20:56;;;;;;;4.35;2.92;;;;;;;26.05;52.51;100437.84;5074046;28;20512;-64
2022/08/02 09:23:22;;;;;;;3.50;2.83;;;;;;;26.39;52.92;100437.31;5074386;28;20089;-64
2022/08/02 09:25:56;;;;;;;4.20;3.03;;;;;;;26.48;51.21;100443.94;5074253;28;20389;-63
2022/08/02 09:28:26;;;;;;;4.38;3.00;;;;;;;26.59;50.64;100445.53;5074270;28;20123;-61
2022/08/02 09:30:52;;;;;;;4.30;2.85;;;;;;;26.83;50.66;100434.84;5074173;28;20039;-60
2022/08/02 09:33:25;;;;;;;3.00;2.67;;;;;;;26.93;49.04;100437.56;5073012;28;20036;-63
2022/08/02 09:35:59;;;;;;;4.13;3.00;;;;;;;27.23;49.38;100441.31;5072829;28;20114;-65
2022/08/02 09:38:24;;;;;;;4.00;2.92;;;;;;;27.26;49.02;100444.34;5074198;28;20040;-63
2022/08/02 09:40:50;;;;;;;3.53;3.15;;;;;;;27.21;48.81;100430.69;5073828;28;20045;-63
2022/08/02 09:43:16;;;;;;;2.90;2.63;;;;;;;27.34;48.14;100433.91;5074053;28;20121;-61
2022/08/02 09:45:41;;;;;;;3.80;2.60;;;;;;;27.64;48.35;100425.53;5072654;28;20131;-64
2022/08/02 09:48:08;;;;;;;5.03;2.55;;;;;;;27.61;47.28;100417.91;5073964;28;20409;-65
2022/08/02 09:50:38;;;;;;;4.07;2.53;;;;;;;27.87;46.76;100426.00;5073525;28;20036;-66
2022/08/02 09:53:04;;;;;;;4.10;2.65;;;;;;;28.08;46.73;100428.31;5073924;28;20492;-63
2022/08/02 09:55:30;;;;;;;3.80;2.85;;;;;;;28.26;46.10;100423.25;5073706;28;20079;-64
2022/08/02 09:57:56;;;;;;;2.70;2.50;;;;;;;28.52;45.72;100432.09;5073838;28;20036;-64
2022/08/02 10:00:22;;;;;;;4.03;2.88;;;;;;;28.98;45.07;100423.44;5073539;28;20560;-64
2022/08/02 10:03:06;;;;;;;3.47;2.65;;;;;;;29.11;44.64;100417.25;5073582;28;20036;-64
2022/08/02 10:05:46;;;;;;;2.70;2.50;;;;;;;29.12;44.24;100414.22;5073625;28;20111;-63
2022/08/02 10:08:13;;;;;;;3.08;2.58;;;;;;;29.55;43.27;100417.00;5073453;28;20040;-62
2022/08/02 10:10:39;;;;;;;4.25;2.58;;;;;;;29.97;43.44;100404.28;5073336;28;20504;-63
2022/08/02 10:13:05;;;;;;;3.30;2.47;;;;;;;29.70;42.11;100413.22;5073600;28;20060;-63
2022/08/02 10:15:31;;;;;;;2.88;2.50;;;;;;;30.18;41.60;100413.03;5073417;28;20363;-64
2022/08/02 10:17:57;;;;;;;4.82;2.72;;;;;;;30.47;39.62;100407.34;5073565;28;20466;-63
2022/08/02 10:20:23;;;;;;;3.55;2.67;;;;;;;29.78;40.12;100409.78;5073077;28;20128;-64
2022/08/02 10:22:50;;;;;;;3.10;2.55;;;;;;;30.41;39.03;100414.84;5072118;28;20047;-64
2022/08/02 10:25:16;;;;;;;4.32;2.60;;;;;;;30.60;39.67;100414.81;5073449;28;20041;-64
2022/08/02 10:27:42;;;;;;;4.07;2.80;;;;;;;30.88;38.26;100409.34;5073409;28;20508;-66
2022/08/02 10:30:08;;;;;;;3.13;2.43;;;;;;;30.72;37.22;100398.66;5073032;28;20127;-65
2022/08/02 10:32:42;;;;;;;5.35;2.45;;;;;;;30.45;39.03;100395.81;5072013;28;20055;-64
2022/08/02 10:35:16;;;;;;;2.50;2.30;;;;;;;30.88;38.59;100390.13;5073550;28;20069;-63
2022/08/02 10:37:44;;;;;;;4.80;2.20;;;;;;;31.26;37.20;100396.25;5073549;28;20125;-66
2022/08/02 10:40:22;;;;;;;3.53;2.15;;;;;;;31.74;36.42;100401.22;5072694;28;20040;-65
2022/08/02 10:42:50;;;;;;;4.25;2.25;;;;;;;31.73;36.40;100380.31;5072720;28;20063;-65
2022/08/02 10:45:18;;;;;;;3.15;2.25;;;;;;;32.08;34.66;100387.78;5072935;28;20068;-64
2022/08/02 10:48:02;;;;;;;3.70;2.05;;;;;;;31.44;35.29;100383.47;5072804;28;20069;-65
2022/08/02 10:50:51;;;;;;;2.20;1.95;;;;;;;31.50;34.44;100374.81;5072580;28;20051;-65
2022/08/02 10:53:28;;;;;;;2.95;1.92;;;;;;;31.66;34.72;100366.19;5063664;28;20496;-65
2022/08/02 10:55:54;;;;;;;;;;;;;;;31.79;34.87;100359.84;5072952;28;20135;-65
2022/08/02 10:58:22;;;;;;;3.15;2.05;;;;;;;32.64;34.19;100367.03;5072704;28;20424;-65
2022/08/02 11:00:49;;;;;;;2.40;1.90;;;;;;;32.71;34.05;100361.06;5072115;28;20036;-66
2022/08/02 11:03:27;;;;;;;2.38;2.17;;;;;;;32.99;33.81;100363.59;5072430;28;20032;-66
2022/08/02 11:06:10;;;;;;;2.60;2.00;;;;;;;33.34;33.04;100357.03;5072566;28;20043;-64
2022/08/02 11:08:37;;;;;;;2.90;1.80;;;;;;;33.66;31.82;100363.25;5072548;28;20405;-65
2022/08/02 11:11:08;;;;;;;2.10;1.70;;;;;;;33.48;33.25;100357.72;5072102;28;20077;-66
2022/08/02 11:13:58;;;;;;;1.80;1.70;;;;;;;34.37;32.03;100362.88;5072293;28;20029;-66
2022/08/02 11:16:56;;;;;;;1.90;1.80;;;;;;;34.84;29.91;100354.56;5072451;28;20539;-65
2022/08/02 11:19:26;;;;;;;3.42;1.52;;;;;;;34.80;29.50;100348.88;5071817;28;20417;-65
2022/08/02 11:22:09;;;;;;;2.75;1.73;;;;;;;34.96;29.77;100341.66;5072234;28;20054;-66
2022/08/02 11:24:36;;;;;;;3.33;2.05;;;;;;;34.88;30.07;100344.44;5072000;28;20432;-65
2022/08/02 11:27:04;;;;;;;2.13;1.77;;;;;;;35.10;29.49;100344.19;5072035;28;20432;-66
2022/08/02 11:29:44;;;;;;;2.13;1.90;;;;;;;35.30;28.95;100337.84;5071656;28;20064;-66
2022/08/02 11:32:22;;;;;;;1.92;1.70;;;;;;;34.66;31.07;100326.97;5071530;28;20039;-65
2022/08/02 11:34:50;;;;;;;2.47;1.70;;;;;;;34.92;31.35;100335.16;5071873;28;20039;-65
2022/08/02 11:37:35;;;;;;;2.72;1.80;;;;;;;35.06;31.83;100326.63;5071805;28;20043;-65
2022/08/02 11:40:12;;;;;;;2.22;2.00;;;;;;;34.70;31.96;100338.19;5071657;28;20068;-65
2022/08/02 11:42:39;;;;;;;4.85;1.95;;;;;;;34.94;31.40;100334.81;5071777;28;20041;-65
2022/08/02 11:45:07;;;;;;;2.28;1.88;;;;;;;34.59;32.61;100332.22;5071831;28;20386;-65
2022/08/02 11:47:43;;;;;;;3.15;1.98;;;;;;;33.68;32.86;100323.13;5072155;28;20715;-65
2022/08/02 11:50:09;;;;;;;3.58;2.25;;;;;;;33.88;32.50;100326.34;5070323;28;20115;-66
2022/08/02 11:52:36;;;;;;;2.55;1.90;;;;;;;33.81;32.99;100326.03;5071761;28;20392;-65
2022/08/02 11:55:06;;;;;;;2.30;2.10;;;;;;;34.62;31.72;100328.78;5071750;28;20066;-65
2022/08/02 11:57:31;;;;;;;3.85;1.63;;;;;;;35.18;30.33;100329.47;5071597;28;20489;-65
2022/08/02 11:59:56;;;;;;;6.23;2.20;;;;;;;35.33;29.73;100326.09;5071284;28;20086;-66
2022/08/02 12:02:25;;;;;;;1.70;1.60;;;;;;;35.40;29.96;100319.19;5071618;28;20029;-66
2022/08/02 12:04:56;;;;;;;2.60;2.08;;;;;;;35.54;28.42;100322.56;5071653;28;20119;-66
2022/08/02 12:07:27;;;;;;;2.92;1.75;;;;;;;36.44;28.20;100321.81;5071492;28;20082;-65
2022/08/02 12:09:52;;;;;;;2.83;2.05;;;;;;;36.88;28.37;100322.88;5071338;28;20039;-66
2022/08/02 12:12:17;;;;;;;3.20;1.93;;;;;;;35.86;29.38;100315.38;5071503;28;20029;-65
2022/08/02 12:14:43;;;;;;;2.30;1.60;;;;;;;36.18;29.27;100322.09;5071454;28;20120;-66
2022/08/02 12:19:53;;;;;;;1.80;1.52;;;;;;;35.30;28.90;100320.44;5062235;28;20028;-65
2022/08/02 12:22:23;;;;;;;3.13;1.60;;;;;;;35.75;28.74;100315.03;5071307;28;20578;-66
2022/08/02 12:24:56;;;;;;;2.40;1.70;;;;;;;36.00;28.02;100323.47;5071390;28;20481;-65
2022/08/02 12:27:28;;;;;;;1.92;1.58;;;;;;;36.21;28.43;100315.88;5071312;28;20045;-65
2022/08/02 12:30:03;;;;;;;3.22;1.60;;;;;;;36.14;26.92;100315.63;5070549;28;20513;-62
2022/08/02 12:32:28;;;;;;;2.15;1.38;;;;;;;36.31;27.85;100309.06;5071137;28;20040;-63
2022/08/02 12:35:29;;;;;;;2.30;1.80;;;;;;;36.24;27.59;100312.41;5071293;28;20064;-64
2022/08/02 12:37:55;;;;;;;2.42;1.98;;;;;;;36.24;27.16;100309.63;5063952;28;20044;-64
2022/08/02 12:40:21;;;;;;;2.00;1.58;;;;;;;35.28;28.55;100304.16;5070510;28;20183;-64
2022/08/02 12:42:54;;;;;;;1.60;1.50;;;;;;;36.24;27.58;100311.59;5072029;28;20370;-63
2022/08/02 12:45:19;;;;;;;2.45;1.67;;;;;;;36.54;27.82;100313.06;5075146;28;20029;-63
2022/08/02 12:47:48;;;;;;;1.93;1.83;;;;;;;37.01;27.53;100309.81;5059776;28;20110;-63
2022/08/02 12:50:29;;;;;;;2.90;1.95;;;;;;;37.07;27.18;100304.81;5054241;28;20036;-63
2022/08/02 12:53:12;;;;;;;1.60;1.50;;;;;;;37.42;26.37;100305.09;5054998;28;20067;-63
2022/08/02 12:55:51;;;;;;;2.15;1.95;;;;;;;37.43;26.69;100299.22;5054975;28;20519;-63
2022/08/02 12:58:17;;;;;;;1.70;1.55;;;;;;;37.73;25.81;100301.63;5054891;28;20219;-63
2022/08/02 13:00:55;;;;;;;1.73;1.55;;;;;;;37.50;25.96;100304.16;5054100;28;20049;-66
2022/08/02 13:03:22;;;;;;;1.50;1.40;;;;;;;37.60;25.90;100297.28;5054805;28;20060;-66
2022/08/02 13:05:48;;;;;;;1.50;1.40;;;;;;;37.88;26.12;100283.38;5054812;28;20460;-66
2022/08/02 13:08:14;;;;;;;1.80;1.60;;;;;;;38.17;24.95;100291.31;5054335;28;20068;-65
2022/08/02 13:10:40;;;;;;;2.63;1.73;;;;;;;38.05;24.57;100282.25;5053927;28;20090;-66
2022/08/02 13:13:05;;;;;;;5.32;1.65;;;;;;;38.04;25.28;100286.19;5054228;28;20037;-66
2022/08/02 13:15:31;;;;;;;3.53;1.63;;;;;;;36.40;26.69;100284.84;5054317;28;20041;-66
2022/08/02 13:17:57;;;;;;;3.13;1.80;;;;;;;36.84;25.78;100269.22;5054498;28;20029;-66
2022/08/02 13:20:26;;;;;;;2.40;1.67;;;;;;;36.56;26.47;100276.63;5054039;28;20745;-66
2022/08/02 13:22:52;;;;;;;3.42;1.90;;;;;;;37.16;26.77;100277.72;5054505;28;20037;-66
2022/08/02 13:25:21;;;;;;;2.20;1.88;;;;;;;37.34;25.43;100284.66;5053083;28;20045;-66
2022/08/02 13:27:47;;;;;;;1.77;1.67;;;;;;;37.17;25.48;100282.16;5054297;28;20048;-66
2022/08/02 13:30:13;;;;;;;1.88;1.73;;;;;;;37.27;26.73;100283.59;5054135;28;20139;-65
2022/08/02 13:32:44;;;;;;;2.07;1.80;;;;;;;36.69;26.40;100276.28;5054227;28;20037;-66
2022/08/02 13:35:09;;;;;;;2.17;1.75;;;;;;;36.40;26.53;100277.34;5054206;28;20135;-66
2022/08/02 13:37:35;;;;;;;1.80;1.70;;;;;;;36.12;27.14;100273.56;5054362;28;20079;-66
2022/08/02 13:40:01;;;;;;;3.03;1.65;;;;;;;35.16;27.72;100259.81;5053658;28;20051;-66
2022/08/02 13:42:27;;;;;;;2.07;1.57;;;;;;;35.40;27.68;100252.75;5054158;28;20025;-65
2022/08/02 13:44:52;;;;;;;2.73;1.80;;;;;;;34.97;28.58;100257.50;5061904;28;20612;-66
2022/08/02 13:47:17;;;;;;;4.97;1.80;;;;;;;34.84;27.96;100258.53;5063834;28;20393;-65
2022/08/02 13:49:43;;;;;;;2.93;1.70;;;;;;;34.44;28.07;100244.31;5073404;28;20131;-66
2022/08/02 13:52:09;;;;;;;1.80;1.60;;;;;;;33.09;29.32;100241.94;5061792;28;20143;-66
2022/08/02 13:54:35;;;;;;;2.23;1.73;;;;;;;33.43;31.17;100249.41;5064095;28;20037;-65
2022/08/02 13:57:00;;;;;;;2.25;1.80;;;;;;;33.33;29.99;100244.22;5061859;28;20032;-64
2022/08/02 13:59:26;;;;;;;3.07;1.70;;;;;;;33.34;29.92;100240.31;5062917;28;20028;-65
2022/08/02 14:01:53;;;;;;;3.60;1.67;;;;;;;33.42;30.32;100236.75;5063136;28;20094;-65
2022/08/02 14:04:18;;;;;;;1.95;1.52;;;;;;;33.17;30.05;100236.41;5062654;28;20025;-65
2022/08/02 14:06:43;;;;;;;3.53;1.67;;;;;;;33.21;29.80;100244.84;5063339;28;20124;-65
2022/08/02 14:09:09;;;;;;;2.13;1.77;;;;;;;33.04;30.36;100242.06;5062260;28;20032;-65
2022/08/02 14:11:34;;;;;;;1.67;1.57;;;;;;;32.75;30.44;100234.41;5061955;28;20494;-65
2022/08/02 14:14:00;;;;;;;2.67;1.40;;;;;;;32.77;30.67;100232.13;5063871;28;20029;-65
2022/08/02 14:16:25;;;;;;;2.03;1.87;;;;;;;32.48;30.39;100230.78;5063594;28;20044;-64
2022/08/02 14:18:51;;;;;;;2.07;1.70;;;;;;;32.62;31.25;100233.41;5062017;28;20044;-65
2022/08/02 14:21:16;;;;;;;1.67;1.57;;;;;;;32.53;31.58;100233.34;5063795;28;20478;-65
2022/08/02 14:23:41;;;;;;;2.80;1.80;;;;;;;32.57;32.00;100231.59;5062658;28;20033;-66
2022/08/02 14:26:08;;;;;;;2.53;1.57;;;;;;;32.31;30.93;100237.00;5062382;28;20040;-65
2022/08/02 14:28:35;;;;;;;2.53;1.90;;;;;;;32.32;31.53;100232.28;5063901;28;20032;-65
2022/08/02 14:31:00;;;;;;;3.20;1.48;;;;;;;32.30;32.16;100227.09;5060889;28;20325;-66
2022/08/02 14:33:26;;;;;;;3.47;1.63;;;;;;;31.92;31.17;100235.03;5062797;28;20121;-65
2022/08/02 14:35:51;;;;;;;1.70;1.50;;;;;;;31.86;31.89;100230.78;5062409;28;20048;-65
2022/08/02 14:38:18;;;;;;;1.50;1.40;;;;;;;31.86;31.87;100230.78;5061676;28;20063;-65
2022/08/02 14:40:45;;;;;;;2.58;1.60;;;;;;;31.75;31.23;100229.38;5059906;28;20044;-66
2022/08/02 14:43:10;;;;;;;2.17;1.95;;;;;;;31.63;31.85;100232.75;5071259;28;20032;-65
2022/08/02 14:45:35;;;;;;;3.28;1.80;;;;;;;31.61;32.69;100226.72;5065375;28;20383;-65
2022/08/02 14:48:01;;;;;;;1.58;1.48;;;;;;;31.67;31.09;100230.16;5053027;28;20075;-65
2022/08/02 14:50:27;;;;;;;1.55;1.42;;;;;;;31.59;31.40;100226.22;5052643;28;20478;-64
2022/08/02 14:52:52;;;;;;;1.47;1.37;;;;;;;31.58;31.38;100219.91;5052842;28;20032;-66
2022/08/02 14:55:17;;;;;;;2.70;1.73;;;;;;;31.53;31.52;100217.28;5052820;28;20339;-65
2022/08/02 14:57:43;;;;;;;5.45;1.65;;;;;;;31.32;30.99;100210.66;5052802;28;20394;-66
2022/08/02 15:00:09;;;;;;;1.75;1.60;;;;;;;31.50;31.39;100214.34;5052608;28;20148;-65
2022/08/02 15:02:35;;;;;;;2.77;1.97;;;;;;;31.40;31.69;100207.16;5052708;28;20033;-65
2022/08/02 15:05:01;;;;;;;4.30;3.43;;;;;;;31.28;31.94;100204.97;5051998;28;20473;-65
2022/08/02 15:07:26;;;;;;;3.58;2.88;;;;;;;31.32;32.50;100210.66;5052096;28;20041;-66
2022/08/02 15:09:52;;;;;;;1.97;1.77;;;;;;;31.35;32.56;100204.53;5052451;28;20116;-65
2022/08/02 15:12:17;;;;;;;2.55;2.30;;;;;;;31.26;32.03;100207.22;5052474;28;20462;-65
2022/08/02 15:14:43;;;;;;;4.72;2.47;;;;;;;31.16;31.47;100204.66;5052459;28;20029;-66
2022/08/02 15:17:08;;;;;;;2.30;2.10;;;;;;;31.00;32.16;100198.72;5052345;28;20033;-66
2022/08/02 15:19:34;;;;;;;1.83;1.65;;;;;;;30.98;32.02;100198.22;5050777;28;20036;-65
2022/08/02 15:21:59;;;;;;;2.50;2.08;;;;;;;30.97;32.13;100202.13;5052074;28;20051;-65
2022/08/02 15:24:25;;;;;;;3.22;2.15;;;;;;;30.77;32.51;100194.31;5052298;28;20482;-65
2022/08/02 15:26:51;;;;;;;2.13;1.77;;;;;;;30.80;31.74;100196.44;5052206;28;20101;-66
2022/08/02 15:29:17;;;;;;;1.67;1.50;;;;;;;30.78;31.99;100183.00;5051927;28;20040;-66
2022/08/02 15:31:43;;;;;;;3.58;3.17;;;;;;;30.83;32.28;100184.00;5052298;28;20178;-66
2022/08/02 15:34:08;;;;;;;2.28;1.77;;;;;;;30.82;32.27;100188.69;5050987;28;20124;-65
2022/08/02 15:36:34;;;;;;;3.05;2.30;;;;;;;30.75;32.02;100185.56;5051876;28;20025;-65
2022/08/02 15:38:59;;;;;;;3.00;1.88;;;;;;;30.83;32.55;100184.00;5051994;28;20118;-65
2022/08/02 15:41:25;;;;;;;1.95;1.70;;;;;;;30.87;32.02;100183.09;5051807;28;20033;-65
2022/08/02 15:43:50;;;;;;;2.47;1.73;;;;;;;30.93;32.67;100183.78;5051962;28;20045;-65
2022/08/02 15:46:16;;;;;;;1.80;1.50;;;;;;;30.97;32.08;100188.38;5051847;28;20056;-65
2022/08/02 15:48:41;;;;;;;3.72;2.03;;;;;;;30.98;31.98;100187.22;5051868;28;20098;-66
2022/08/02 15:51:07;;;;;;;1.90;1.60;;;;;;;30.96;31.78;100183.16;5050230;28;20037;-65
2022/08/02 15:53:32;;;;;;;2.38;1.45;;;;;;;30.98;31.75;100184.47;5051744;28;20106;-65
2022/08/02 15:55:57;;;;;;;2.22;1.73;;;;;;;30.93;32.08;100183.78;5051892;28;20102;-66
2022/08/02 15:58:23;;;;;;;1.58;1.48;;;;;;;30.49;31.85;100177.03;5051816;28;20029;-65